NWA1223 KCLT-KBHM
Flight info
| Callsign | NWA1223 |
|---|---|
| Flight time | 1h 2m |
| Altitude | 38000 |
| Route | ESTRR5 IPTAY CHOPZ THRSR KIOSK |
| Aircraft | B738/M-SDE2E3FGHIRWXY/LB1 |
Departure
| Time | 2026-04-26 12:53 |
|---|---|
| Airport | Charlotte Douglas International Airport (KCLT) |
Arrival
| Time | 2026-04-26 13:55 |
|---|---|
| Airport | Birmingham-Shuttlesworth International Airport (KBHM) |
| Time | Latitude | Longitude | Altitude | Speed | Heading |
|---|---|---|---|---|---|
| 2026-04-26 12:15 | 35.21826 | -80.94295 | 730 ft | 0 kts | 89° |
| 2026-04-26 12:43 | 35.21825 | -80.94304 | 738 ft | 2 kts | 89° |
| 2026-04-26 12:43 | 35.21825 | -80.94324 | 738 ft | 2 kts | 89° |
| 2026-04-26 12:43 | 35.21825 | -80.94344 | 736 ft | 2 kts | 89° |
| 2026-04-26 12:43 | 35.21825 | -80.94364 | 736 ft | 2 kts | 89° |
| 2026-04-26 12:44 | 35.21825 | -80.94365 | 736 ft | 0 kts | 89° |
| 2026-04-26 12:46 | 35.21825 | -80.94364 | 736 ft | 1 kts | 90° |
| 2026-04-26 12:46 | 35.21808 | -80.94354 | 736 ft | 5 kts | 167° |
| 2026-04-26 12:46 | 35.21745 | -80.94345 | 737 ft | 11 kts | 176° |
| 2026-04-26 12:46 | 35.21666 | -80.94332 | 735 ft | 11 kts | 158° |
| 2026-04-26 12:47 | 35.21625 | -80.94255 | 735 ft | 11 kts | 143° |
| 2026-04-26 12:47 | 35.21558 | -80.94284 | 734 ft | 11 kts | 225° |
| 2026-04-26 12:47 | 35.21507 | -80.94353 | 732 ft | 11 kts | 229° |
| 2026-04-26 12:47 | 35.21459 | -80.94420 | 731 ft | 10 kts | 229° |
| 2026-04-26 12:48 | 35.21411 | -80.94487 | 729 ft | 11 kts | 228° |
| 2026-04-26 12:48 | 35.21352 | -80.94571 | 729 ft | 15 kts | 236° |
| 2026-04-26 12:48 | 35.21311 | -80.94686 | 726 ft | 15 kts | 252° |
| 2026-04-26 12:48 | 35.21272 | -80.94796 | 724 ft | 14 kts | 232° |
| 2026-04-26 12:49 | 35.21209 | -80.94882 | 723 ft | 13 kts | 228° |
| 2026-04-26 12:49 | 35.21154 | -80.94956 | 720 ft | 11 kts | 221° |
| 2026-04-26 12:49 | 35.21081 | -80.94972 | 720 ft | 11 kts | 174° |
| 2026-04-26 12:49 | 35.20994 | -80.94962 | 717 ft | 15 kts | 175° |
| 2026-04-26 12:50 | 35.20868 | -80.94952 | 717 ft | 21 kts | 176° |
| 2026-04-26 12:50 | 35.20718 | -80.94940 | 718 ft | 22 kts | 176° |
| 2026-04-26 12:50 | 35.20570 | -80.94928 | 717 ft | 21 kts | 176° |
| 2026-04-26 12:50 | 35.20425 | -80.94915 | 714 ft | 20 kts | 175° |
| 2026-04-26 12:51 | 35.20286 | -80.94902 | 702 ft | 20 kts | 175° |
| 2026-04-26 12:51 | 35.20150 | -80.94890 | 700 ft | 19 kts | 176° |
| 2026-04-26 12:51 | 35.20042 | -80.94897 | 699 ft | 12 kts | 213° |
| 2026-04-26 12:51 | 35.20020 | -80.94954 | 695 ft | 3 kts | 263° |
| 2026-04-26 12:52 | 35.20015 | -80.95003 | 697 ft | 11 kts | 263° |
| 2026-04-26 12:52 | 35.20042 | -80.95083 | 697 ft | 12 kts | 345° |
| 2026-04-26 12:52 | 35.20137 | -80.95098 | 699 ft | 24 kts | 355° |
| 2026-04-26 12:52 | 35.20539 | -80.95133 | 717 ft | 91 kts | 356° |
| 2026-04-26 12:53 | 35.21371 | -80.95207 | 725 ft | 147 kts | 355° |
| 2026-04-26 12:53 | 35.22513 | -80.95296 | 964 ft | 176 kts | 358° |
| 2026-04-26 12:53 | 35.23680 | -80.95525 | 1918 ft | 167 kts | 328° |
| 2026-04-26 12:53 | 35.24425 | -80.96700 | 2269 ft | 198 kts | 286° |
| 2026-04-26 12:54 | 35.24345 | -80.98411 | 2882 ft | 209 kts | 246° |
| 2026-04-26 12:54 | 35.23693 | -81.00029 | 3510 ft | 216 kts | 247° |
| 2026-04-26 12:54 | 35.22990 | -81.01672 | 3971 ft | 227 kts | 244° |
| 2026-04-26 12:54 | 35.22250 | -81.03477 | 4474 ft | 251 kts | 245° |
| 2026-04-26 12:55 | 35.21437 | -81.05529 | 5049 ft | 272 kts | 243° |
| 2026-04-26 12:55 | 35.20558 | -81.07540 | 6035 ft | 267 kts | 244° |
| 2026-04-26 12:55 | 35.19729 | -81.09560 | 7056 ft | 258 kts | 243° |
| 2026-04-26 12:55 | 35.18863 | -81.11532 | 7534 ft | 273 kts | 243° |
| 2026-04-26 12:56 | 35.17943 | -81.13621 | 8035 ft | 283 kts | 243° |
| 2026-04-26 12:56 | 35.17033 | -81.15727 | 8751 ft | 285 kts | 244° |
| 2026-04-26 12:56 | 35.16123 | -81.17873 | 9552 ft | 285 kts | 244° |
| 2026-04-26 12:56 | 35.15221 | -81.20035 | 10278 ft | 287 kts | 245° |
| 2026-04-26 12:57 | 35.14292 | -81.22286 | 10533 ft | 308 kts | 245° |
| 2026-04-26 12:57 | 35.13302 | -81.24705 | 10702 ft | 329 kts | 245° |
| 2026-04-26 12:57 | 35.12248 | -81.27286 | 10862 ft | 349 kts | 245° |
| 2026-04-26 12:58 | 35.10019 | -81.32750 | 11850 ft | 364 kts | 245° |
| 2026-04-26 12:58 | 35.08890 | -81.35518 | 12533 ft | 365 kts | 245° |
| 2026-04-26 12:58 | 35.07755 | -81.38302 | 13195 ft | 368 kts | 245° |
| 2026-04-26 12:58 | 35.06610 | -81.41108 | 13813 ft | 371 kts | 245° |
| 2026-04-26 12:59 | 35.05456 | -81.43934 | 14398 ft | 373 kts | 245° |
| 2026-04-26 12:59 | 35.04301 | -81.46770 | 15000 ft | 374 kts | 246° |
| 2026-04-26 12:59 | 35.03254 | -81.49682 | 15592 ft | 376 kts | 249° |
| 2026-04-26 12:59 | 35.02285 | -81.52653 | 16172 ft | 377 kts | 250° |
| 2026-04-26 13:00 | 35.01316 | -81.55634 | 16759 ft | 379 kts | 250° |
| 2026-04-26 13:00 | 35.00662 | -81.57616 | 17135 ft | 381 kts | 250° |
| 2026-04-26 13:00 | 34.99667 | -81.60616 | 17688 ft | 383 kts | 250° |
| 2026-04-26 13:00 | 34.98675 | -81.63641 | 18219 ft | 385 kts | 251° |
| 2026-04-26 13:01 | 34.97683 | -81.66682 | 18699 ft | 387 kts | 251° |
| 2026-04-26 13:01 | 34.96685 | -81.69739 | 19197 ft | 388 kts | 251° |
| 2026-04-26 13:01 | 34.95685 | -81.72798 | 19692 ft | 390 kts | 251° |
| 2026-04-26 13:01 | 34.94676 | -81.75876 | 20181 ft | 391 kts | 251° |
| 2026-04-26 13:02 | 34.93662 | -81.78960 | 20671 ft | 393 kts | 250° |
| 2026-04-26 13:02 | 34.92479 | -81.81974 | 21132 ft | 397 kts | 242° |
| 2026-04-26 13:02 | 34.90956 | -81.84798 | 21597 ft | 400 kts | 239° |
| 2026-04-26 13:02 | 34.89376 | -81.87601 | 22043 ft | 402 kts | 239° |
| 2026-04-26 13:03 | 34.87783 | -81.90408 | 22475 ft | 404 kts | 239° |
| 2026-04-26 13:03 | 34.86186 | -81.93230 | 22913 ft | 405 kts | 239° |
| 2026-04-26 13:03 | 34.84588 | -81.96065 | 23353 ft | 407 kts | 239° |
| 2026-04-26 13:03 | 34.82988 | -81.98913 | 23724 ft | 409 kts | 239° |
| 2026-04-26 13:04 | 34.81383 | -82.01778 | 24039 ft | 411 kts | 239° |
| 2026-04-26 13:04 | 34.79771 | -82.04657 | 24322 ft | 414 kts | 239° |
| 2026-04-26 13:04 | 34.78145 | -82.07562 | 24613 ft | 416 kts | 239° |
| 2026-04-26 13:04 | 34.76511 | -82.10481 | 24932 ft | 418 kts | 240° |
| 2026-04-26 13:05 | 34.74870 | -82.13408 | 25221 ft | 421 kts | 240° |
| 2026-04-26 13:05 | 34.73339 | -82.16138 | 25495 ft | 423 kts | 240° |
| 2026-04-26 13:05 | 34.71679 | -82.19094 | 25775 ft | 425 kts | 240° |
| 2026-04-26 13:05 | 34.70008 | -82.22069 | 26055 ft | 427 kts | 240° |
| 2026-04-26 13:06 | 34.68329 | -82.25054 | 26356 ft | 429 kts | 240° |
| 2026-04-26 13:06 | 34.66640 | -82.28054 | 26649 ft | 430 kts | 240° |
| 2026-04-26 13:06 | 34.64949 | -82.31056 | 26911 ft | 433 kts | 240° |
| 2026-04-26 13:06 | 34.63242 | -82.34083 | 27163 ft | 435 kts | 240° |
| 2026-04-26 13:07 | 34.61530 | -82.37117 | 27433 ft | 437 kts | 240° |
| 2026-04-26 13:07 | 34.59809 | -82.40163 | 27692 ft | 438 kts | 240° |
| 2026-04-26 13:07 | 34.58081 | -82.43220 | 27934 ft | 440 kts | 240° |
| 2026-04-26 13:07 | 34.56343 | -82.46292 | 28172 ft | 442 kts | 240° |
| 2026-04-26 13:08 | 34.54598 | -82.49375 | 28393 ft | 444 kts | 240° |
| 2026-04-26 13:08 | 34.52846 | -82.52466 | 28636 ft | 446 kts | 240° |
| 2026-04-26 13:08 | 34.51088 | -82.55566 | 28883 ft | 447 kts | 240° |
| 2026-04-26 13:08 | 34.49323 | -82.58673 | 29168 ft | 448 kts | 240° |
| 2026-04-26 13:09 | 34.47557 | -82.61780 | 29520 ft | 446 kts | 241° |
| 2026-04-26 13:09 | 34.45798 | -82.64870 | 29892 ft | 445 kts | 241° |
| 2026-04-26 13:09 | 34.44042 | -82.67955 | 30186 ft | 444 kts | 241° |
| 2026-04-26 13:09 | 34.42290 | -82.71031 | 30483 ft | 443 kts | 242° |
| 2026-04-26 13:10 | 34.40544 | -82.74092 | 30851 ft | 440 kts | 242° |
| 2026-04-26 13:10 | 34.38811 | -82.77130 | 31219 ft | 437 kts | 242° |
| 2026-04-26 13:10 | 34.37090 | -82.80144 | 31535 ft | 435 kts | 242° |
| 2026-04-26 13:10 | 34.35378 | -82.83140 | 31822 ft | 433 kts | 243° |
| 2026-04-26 13:11 | 34.33660 | -82.86140 | 32118 ft | 431 kts | 243° |
| 2026-04-26 13:11 | 34.31956 | -82.89108 | 32426 ft | 429 kts | 243° |
| 2026-04-26 13:11 | 34.30252 | -82.92069 | 32739 ft | 427 kts | 243° |
| 2026-04-26 13:11 | 34.28557 | -82.95012 | 33039 ft | 426 kts | 243° |
| 2026-04-26 13:12 | 34.26894 | -82.97901 | 33320 ft | 424 kts | 243° |
| 2026-04-26 13:12 | 34.25212 | -83.00821 | 33597 ft | 422 kts | 244° |
| 2026-04-26 13:12 | 34.23533 | -83.03736 | 33872 ft | 421 kts | 244° |
| 2026-04-26 13:12 | 34.21864 | -83.06629 | 34128 ft | 419 kts | 244° |
| 2026-04-26 13:13 | 34.20196 | -83.09519 | 34295 ft | 419 kts | 244° |
| 2026-04-26 13:13 | 34.18529 | -83.12409 | 34422 ft | 420 kts | 244° |
| 2026-04-26 13:13 | 34.16855 | -83.15306 | 34583 ft | 420 kts | 244° |
| 2026-04-26 13:13 | 34.15180 | -83.18202 | 34764 ft | 420 kts | 244° |
| 2026-04-26 13:14 | 34.13509 | -83.21090 | 34919 ft | 420 kts | 244° |
| 2026-04-26 13:14 | 34.11834 | -83.23980 | 35070 ft | 420 kts | 244° |
| 2026-04-26 13:14 | 34.10158 | -83.26871 | 35229 ft | 420 kts | 244° |
| 2026-04-26 13:14 | 34.08483 | -83.29756 | 35390 ft | 420 kts | 244° |
| 2026-04-26 13:15 | 34.06807 | -83.32641 | 35537 ft | 420 kts | 244° |
| 2026-04-26 13:15 | 34.05130 | -83.35527 | 35674 ft | 420 kts | 244° |
| 2026-04-26 13:15 | 34.03452 | -83.38411 | 35830 ft | 420 kts | 244° |
| 2026-04-26 13:15 | 34.01776 | -83.41289 | 35955 ft | 421 kts | 244° |
| 2026-04-26 13:16 | 33.98405 | -83.47075 | 36191 ft | 421 kts | 244° |
| 2026-04-26 13:16 | 33.96720 | -83.49959 | 36377 ft | 421 kts | 244° |
| 2026-04-26 13:16 | 33.95037 | -83.52841 | 36534 ft | 420 kts | 244° |
| 2026-04-26 13:17 | 33.91736 | -83.58488 | 36780 ft | 421 kts | 244° |
| 2026-04-26 13:17 | 33.90002 | -83.61452 | 36918 ft | 420 kts | 244° |
| 2026-04-26 13:18 | 33.86643 | -83.67217 | 37113 ft | 419 kts | 247° |
| 2026-04-26 13:18 | 33.85233 | -83.70243 | 37187 ft | 410 kts | 255° |
| 2026-04-26 13:18 | 33.83283 | -83.76575 | 37449 ft | 402 kts | 259° |
| 2026-04-26 13:19 | 33.82346 | -83.79750 | 37555 ft | 403 kts | 259° |
| 2026-04-26 13:19 | 33.80456 | -83.86087 | 37767 ft | 402 kts | 259° |
| 2026-04-26 13:19 | 33.79505 | -83.89243 | 37890 ft | 402 kts | 259° |
| 2026-04-26 13:20 | 33.78550 | -83.92402 | 37958 ft | 401 kts | 259° |
| 2026-04-26 13:20 | 33.76636 | -83.98712 | 37973 ft | 402 kts | 259° |
| 2026-04-26 13:21 | 33.74711 | -84.05041 | 37979 ft | 404 kts | 259° |
| 2026-04-26 13:21 | 33.72779 | -84.11378 | 37974 ft | 404 kts | 259° |
| 2026-04-26 13:22 | 33.70842 | -84.17720 | 37973 ft | 404 kts | 259° |
| 2026-04-26 13:22 | 33.68952 | -84.23892 | 37979 ft | 404 kts | 259° |
| 2026-04-26 13:23 | 33.67013 | -84.30216 | 37970 ft | 403 kts | 259° |
| 2026-04-26 13:23 | 33.65089 | -84.36478 | 37986 ft | 402 kts | 259° |
| 2026-04-26 13:24 | 33.63314 | -84.42835 | 37978 ft | 393 kts | 266° |
| 2026-04-26 13:24 | 33.62751 | -84.49220 | 37987 ft | 380 kts | 275° |
| 2026-04-26 13:25 | 33.62642 | -84.55515 | 37977 ft | 380 kts | 275° |
| 2026-04-26 13:25 | 33.62518 | -84.61853 | 37923 ft | 379 kts | 275° |
| 2026-04-26 13:25 | 33.62453 | -84.65061 | 36725 ft | 387 kts | 275° |
| 2026-04-26 13:26 | 33.62382 | -84.68274 | 36155 ft | 384 kts | 274° |
| 2026-04-26 13:26 | 33.62309 | -84.71484 | 35453 ft | 386 kts | 274° |
| 2026-04-26 13:26 | 33.62235 | -84.74706 | 34792 ft | 387 kts | 274° |
| 2026-04-26 13:26 | 33.62159 | -84.77945 | 34108 ft | 390 kts | 273° |
| 2026-04-26 13:27 | 33.62082 | -84.81206 | 33328 ft | 392 kts | 273° |
| 2026-04-26 13:27 | 33.62004 | -84.84489 | 32578 ft | 395 kts | 273° |
| 2026-04-26 13:27 | 33.61924 | -84.87785 | 31848 ft | 397 kts | 272° |
| 2026-04-26 13:27 | 33.61842 | -84.91079 | 31358 ft | 394 kts | 272° |
| 2026-04-26 13:28 | 33.61759 | -84.94357 | 30842 ft | 392 kts | 272° |
| 2026-04-26 13:28 | 33.61676 | -84.97618 | 30330 ft | 390 kts | 272° |
| 2026-04-26 13:28 | 33.61594 | -85.00872 | 29755 ft | 389 kts | 272° |
| 2026-04-26 13:28 | 33.61511 | -85.04102 | 29187 ft | 387 kts | 272° |
| 2026-04-26 13:29 | 33.61427 | -85.07323 | 28647 ft | 384 kts | 272° |
| 2026-04-26 13:29 | 33.61372 | -85.09439 | 28286 ft | 383 kts | 272° |
| 2026-04-26 13:29 | 33.61260 | -85.13694 | 27584 ft | 380 kts | 272° |
| 2026-04-26 13:29 | 33.61176 | -85.16851 | 27064 ft | 378 kts | 272° |
| 2026-04-26 13:30 | 33.61092 | -85.19992 | 26556 ft | 376 kts | 272° |
| 2026-04-26 13:30 | 33.61008 | -85.23120 | 26046 ft | 375 kts | 272° |
| 2026-04-26 13:30 | 33.60923 | -85.26237 | 25537 ft | 374 kts | 272° |
| 2026-04-26 13:30 | 33.60837 | -85.29350 | 24998 ft | 373 kts | 271° |
| 2026-04-26 13:31 | 33.60752 | -85.32395 | 24488 ft | 370 kts | 271° |
| 2026-04-26 13:31 | 33.60666 | -85.35480 | 23966 ft | 370 kts | 271° |
| 2026-04-26 13:31 | 33.60579 | -85.38570 | 23420 ft | 371 kts | 271° |
| 2026-04-26 13:31 | 33.60491 | -85.41660 | 22852 ft | 371 kts | 271° |
| 2026-04-26 13:32 | 33.60402 | -85.44747 | 22318 ft | 369 kts | 271° |
| 2026-04-26 13:32 | 33.60313 | -85.47819 | 21802 ft | 368 kts | 270° |
| 2026-04-26 13:32 | 33.60223 | -85.50880 | 21282 ft | 366 kts | 270° |
| 2026-04-26 13:32 | 33.60133 | -85.53928 | 20787 ft | 365 kts | 270° |
| 2026-04-26 13:33 | 33.60042 | -85.56963 | 20297 ft | 364 kts | 270° |
| 2026-04-26 13:33 | 33.59951 | -85.59993 | 19791 ft | 363 kts | 270° |
| 2026-04-26 13:33 | 33.59860 | -85.63014 | 19293 ft | 362 kts | 270° |
| 2026-04-26 13:33 | 33.59768 | -85.66033 | 18796 ft | 362 kts | 269° |
| 2026-04-26 13:34 | 33.59675 | -85.69041 | 18294 ft | 361 kts | 269° |
| 2026-04-26 13:34 | 33.59582 | -85.72056 | 17728 ft | 361 kts | 270° |
| 2026-04-26 13:34 | 33.59487 | -85.75059 | 17207 ft | 359 kts | 270° |
| 2026-04-26 13:34 | 33.59425 | -85.77033 | 16871 ft | 358 kts | 270° |
| 2026-04-26 13:35 | 33.59298 | -85.81013 | 16200 ft | 355 kts | 270° |
| 2026-04-26 13:35 | 33.59204 | -85.83966 | 15676 ft | 355 kts | 270° |
| 2026-04-26 13:35 | 33.59109 | -85.86921 | 15175 ft | 354 kts | 270° |
| 2026-04-26 13:35 | 33.59013 | -85.89872 | 14666 ft | 355 kts | 271° |
| 2026-04-26 13:36 | 33.58917 | -85.92829 | 14160 ft | 355 kts | 271° |
| 2026-04-26 13:36 | 33.58820 | -85.95790 | 13618 ft | 356 kts | 271° |
| 2026-04-26 13:36 | 33.58722 | -85.98753 | 13067 ft | 356 kts | 271° |
| 2026-04-26 13:36 | 33.58623 | -86.01713 | 12547 ft | 355 kts | 271° |
| 2026-04-26 13:37 | 33.58524 | -86.04666 | 12037 ft | 354 kts | 270° |
| 2026-04-26 13:37 | 33.58424 | -86.07618 | 11549 ft | 353 kts | 270° |
| 2026-04-26 13:37 | 33.58324 | -86.10550 | 11046 ft | 352 kts | 270° |
| 2026-04-26 13:37 | 33.58224 | -86.13463 | 10770 ft | 344 kts | 270° |
| 2026-04-26 13:38 | 33.58077 | -86.16294 | 10544 ft | 336 kts | 266° |
| 2026-04-26 13:38 | 33.57751 | -86.19023 | 10258 ft | 323 kts | 263° |
| 2026-04-26 13:38 | 33.57365 | -86.21611 | 10084 ft | 307 kts | 262° |
| 2026-04-26 13:38 | 33.56985 | -86.24069 | 9955 ft | 291 kts | 262° |
| 2026-04-26 13:39 | 33.56634 | -86.26353 | 9884 ft | 275 kts | 263° |
| 2026-04-26 13:39 | 33.56292 | -86.28634 | 9357 ft | 276 kts | 263° |
| 2026-04-26 13:39 | 33.55961 | -86.30877 | 8981 ft | 271 kts | 263° |
| 2026-04-26 13:39 | 33.55639 | -86.33086 | 8700 ft | 268 kts | 263° |
| 2026-04-26 13:40 | 33.55319 | -86.35285 | 8410 ft | 267 kts | 263° |
| 2026-04-26 13:40 | 33.55003 | -86.37472 | 8117 ft | 266 kts | 263° |
| 2026-04-26 13:40 | 33.54688 | -86.39652 | 7845 ft | 265 kts | 262° |
| 2026-04-26 13:40 | 33.54375 | -86.41823 | 7565 ft | 264 kts | 262° |
| 2026-04-26 13:41 | 33.54063 | -86.43986 | 7282 ft | 263 kts | 262° |
| 2026-04-26 13:41 | 33.53752 | -86.46138 | 7004 ft | 262 kts | 262° |
| 2026-04-26 13:41 | 33.53442 | -86.48284 | 6720 ft | 261 kts | 262° |
| 2026-04-26 13:41 | 33.53132 | -86.50422 | 6443 ft | 260 kts | 261° |
| 2026-04-26 13:42 | 33.52824 | -86.52548 | 6158 ft | 258 kts | 262° |
| 2026-04-26 13:42 | 33.52517 | -86.54665 | 5881 ft | 258 kts | 262° |
| 2026-04-26 13:42 | 33.52209 | -86.56783 | 5591 ft | 258 kts | 262° |
| 2026-04-26 13:42 | 33.51903 | -86.58888 | 5314 ft | 257 kts | 262° |
| 2026-04-26 13:43 | 33.51595 | -86.61004 | 5031 ft | 257 kts | 262° |
| 2026-04-26 13:43 | 33.51289 | -86.63110 | 4755 ft | 256 kts | 262° |
| 2026-04-26 13:43 | 33.50982 | -86.65210 | 4473 ft | 256 kts | 262° |
| 2026-04-26 13:43 | 33.50679 | -86.67291 | 4197 ft | 256 kts | 262° |
| 2026-04-26 13:44 | 33.50370 | -86.69392 | 4050 ft | 250 kts | 262° |
| 2026-04-26 13:44 | 33.50074 | -86.71413 | 3921 ft | 243 kts | 262° |
| 2026-04-26 13:44 | 33.49787 | -86.73372 | 3816 ft | 235 kts | 262° |
| 2026-04-26 13:44 | 33.49509 | -86.75271 | 3705 ft | 228 kts | 262° |
| 2026-04-26 13:45 | 33.49239 | -86.77106 | 3597 ft | 222 kts | 262° |
| 2026-04-26 13:45 | 33.48971 | -86.78936 | 3394 ft | 225 kts | 262° |
| 2026-04-26 13:45 | 33.48676 | -86.80783 | 3190 ft | 227 kts | 260° |
| 2026-04-26 13:45 | 33.48362 | -86.82637 | 2951 ft | 227 kts | 260° |
| 2026-04-26 13:46 | 33.48048 | -86.84490 | 2696 ft | 227 kts | 260° |
| 2026-04-26 13:46 | 33.47739 | -86.86325 | 2621 ft | 224 kts | 260° |
| 2026-04-26 13:46 | 33.47437 | -86.88134 | 2611 ft | 217 kts | 260° |
| 2026-04-26 13:46 | 33.47150 | -86.89850 | 2592 ft | 202 kts | 260° |
| 2026-04-26 13:47 | 33.46918 | -86.91492 | 2594 ft | 201 kts | 271° |
| 2026-04-26 13:47 | 33.47069 | -86.93139 | 2613 ft | 197 kts | 279° |
| 2026-04-26 13:47 | 33.47189 | -86.94218 | 2593 ft | 196 kts | 279° |
| 2026-04-26 13:47 | 33.47366 | -86.95830 | 2597 ft | 195 kts | 279° |
| 2026-04-26 13:48 | 33.47540 | -86.97438 | 2593 ft | 194 kts | 279° |
| 2026-04-26 13:48 | 33.47710 | -86.99040 | 2573 ft | 195 kts | 276° |
| 2026-04-26 13:48 | 33.47438 | -87.00601 | 2593 ft | 196 kts | 238° |
| 2026-04-26 13:48 | 33.45975 | -87.01813 | 2526 ft | 196 kts | 187° |
| 2026-04-26 13:49 | 33.44696 | -87.01553 | 2501 ft | 185 kts | 146° |
| 2026-04-26 13:49 | 33.44078 | -87.00854 | 2514 ft | 180 kts | 119° |
| 2026-04-26 13:49 | 33.43709 | -86.99448 | 2555 ft | 178 kts | 99° |
| 2026-04-26 13:49 | 33.43475 | -86.97980 | 2517 ft | 179 kts | 93° |
| 2026-04-26 13:50 | 33.43784 | -86.96613 | 2483 ft | 170 kts | 45° |
| 2026-04-26 13:50 | 33.44637 | -86.95674 | 2516 ft | 166 kts | 46° |
| 2026-04-26 13:50 | 33.45392 | -86.94627 | 2511 ft | 165 kts | 51° |
| 2026-04-26 13:50 | 33.46072 | -86.93545 | 2549 ft | 158 kts | 53° |
| 2026-04-26 13:51 | 33.46696 | -86.92489 | 2507 ft | 153 kts | 54° |
| 2026-04-26 13:51 | 33.47276 | -86.91486 | 2524 ft | 142 kts | 54° |
| 2026-04-26 13:51 | 33.47843 | -86.90498 | 2463 ft | 147 kts | 54° |
| 2026-04-26 13:51 | 33.48407 | -86.89513 | 2469 ft | 143 kts | 54° |
| 2026-04-26 13:52 | 33.48970 | -86.88529 | 2475 ft | 143 kts | 54° |
| 2026-04-26 13:52 | 33.49530 | -86.87550 | 2480 ft | 141 kts | 54° |
| 2026-04-26 13:52 | 33.50088 | -86.86575 | 2445 ft | 144 kts | 54° |
| 2026-04-26 13:52 | 33.50653 | -86.85586 | 2289 ft | 143 kts | 55° |
| 2026-04-26 13:53 | 33.51215 | -86.84604 | 2048 ft | 144 kts | 55° |
| 2026-04-26 13:53 | 33.51792 | -86.83616 | 1824 ft | 145 kts | 53° |
| 2026-04-26 13:53 | 33.52384 | -86.82637 | 1654 ft | 144 kts | 56° |
| 2026-04-26 13:53 | 33.52915 | -86.81617 | 1444 ft | 145 kts | 56° |
| 2026-04-26 13:54 | 33.53489 | -86.80606 | 1273 ft | 148 kts | 55° |
| 2026-04-26 13:54 | 33.54080 | -86.79588 | 1065 ft | 149 kts | 55° |
| 2026-04-26 13:54 | 33.54659 | -86.78580 | 898 ft | 144 kts | 55° |
| 2026-04-26 13:55 | 33.55775 | -86.76664 | 628 ft | 127 kts | 60° |
| 2026-04-26 13:55 | 33.56073 | -86.76127 | 630 ft | 101 kts | 53° |
| 2026-04-26 13:55 | 33.56287 | -86.75571 | 642 ft | 10 kts | 195° |
| 2026-04-26 13:56 | 33.56240 | -86.75635 | 642 ft | 10 kts | 237° |
| 2026-04-26 13:56 | 33.56215 | -86.75683 | 643 ft | 4 kts | 238° |
| 2026-04-26 13:56 | 33.56208 | -86.75695 | 642 ft | 0 kts | 238° |
| 2026-04-26 13:56 | 33.56182 | -86.75695 | 641 ft | 7 kts | 147° |
| 2026-04-26 13:57 | 33.56168 | -86.75643 | 640 ft | 7 kts | 85° |
| 2026-04-26 13:57 | 33.56195 | -86.75594 | 641 ft | 8 kts | 53° |
| 2026-04-26 13:57 | 33.56227 | -86.75542 | 639 ft | 8 kts | 53° |
| 2026-04-26 13:57 | 33.56258 | -86.75491 | 640 ft | 7 kts | 59° |
| 2026-04-26 13:58 | 33.56269 | -86.75432 | 640 ft | 7 kts | 84° |
| 2026-04-26 13:58 | 33.56291 | -86.75381 | 643 ft | 7 kts | 54° |
| 2026-04-26 13:58 | 33.56317 | -86.75333 | 640 ft | 7 kts | 58° |
| 2026-04-26 13:58 | 33.56316 | -86.75307 | 626 ft | 3 kts | 129° |
| 2026-04-26 13:59 | 33.56299 | -86.75293 | 632 ft | 3 kts | 144° |
| 2026-04-26 13:59 | 33.56281 | -86.75278 | 643 ft | 3 kts | 146° |
| 2026-04-26 13:59 | 33.56272 | -86.75271 | 639 ft | 1 kts | 146° |